Time;durP1;ratioP1;P1;durP2;ratioP2;P2;SDS_P1;SDS_P2;PMS_P1;PMS_P2;Temp;Humidity;BMP_temperature;BMP_pressure;BME280_temperature;BME280_humidity;BME280_pressure;Samples;Min_cycle;Max_cycle;Signal;HPM_P1;HPM_P2
2022/04/09 00:01:22;;;;;;;25.90;9.70;;;;;;;6.34;74.70;98183.48;106253;1270;22593;-59
2022/04/09 00:03:54;;;;;;;25.10;9.50;;;;;;;6.33;74.84;98191.06;106278;1271;22858;-59
2022/04/09 00:06:26;;;;;;;23.50;9.00;;;;;;;6.31;74.90;98194.39;106406;1270;22989;-59
2022/04/09 00:08:57;;;;;;;21.40;8.50;;;;;;;6.31;74.92;98184.92;106350;1270;22563;-59
2022/04/09 00:11:31;;;;;;;22.60;9.30;;;;;;;6.32;74.94;98181.44;106270;1270;22904;-59
2022/04/09 00:14:03;;;;;;;22.30;9.20;;;;;;;6.31;74.92;98175.04;106312;1270;24250;-59
2022/04/09 00:16:35;;;;;;;23.80;10.20;;;;;;;6.31;75.03;98170.11;106218;1270;22712;-59
2022/04/09 00:19:08;;;;;;;21.90;8.80;;;;;;;6.30;74.75;98167.03;106281;1270;24238;-59
2022/04/09 00:21:40;;;;;;;23.10;9.00;;;;;;;6.31;74.87;98168.49;106360;1270;22550;-59
2022/04/09 00:24:13;;;;;;;24.10;9.10;;;;;;;6.32;74.96;98163.15;106298;1270;22765;-58
2022/04/09 00:26:46;;;;;;;25.20;9.90;;;;;;;6.30;75.12;98158.42;106305;1270;26531;-58
2022/04/09 00:29:18;;;;;;;18.80;8.20;;;;;;;6.28;75.01;98145.17;106294;1271;22541;-58
2022/04/09 00:31:50;;;;;;;19.30;8.90;;;;;;;6.29;75.06;98134.83;106321;1271;22843;-58
2022/04/09 00:34:22;;;;;;;20.90;9.20;;;;;;;6.30;75.12;98134.69;106303;1270;22854;-58
2022/04/09 00:36:54;;;;;;;20.30;9.10;;;;;;;6.29;75.09;98120.02;106261;1270;22529;-58
2022/04/09 00:39:27;;;;;;;23.30;10.70;;;;;;;6.28;75.18;98110.39;106359;1270;25439;-59
2022/04/09 00:41:58;;;;;;;29.00;13.20;;;;;;;6.28;75.37;98119.33;106218;1270;26565;-59
2022/04/09 00:44:31;;;;;;;31.50;12.80;;;;;;;6.26;75.37;98132.36;106291;1270;22655;-59
2022/04/09 00:47:07;;;;;;;30.70;12.90;;;;;;;6.27;75.16;98126.61;106258;1271;22614;-58
2022/04/09 00:49:41;;;;;;;31.10;13.40;;;;;;;6.29;75.20;98113.73;106371;1270;22525;-60
2022/04/09 00:52:14;;;;;;;26.10;12.40;;;;;;;6.29;75.28;98113.11;106188;1271;25370;-60
2022/04/09 00:54:47;;;;;;;29.40;11.60;;;;;;;6.30;75.36;98122.30;106191;1270;22578;-59
2022/04/09 00:57:21;;;;;;;25.90;10.90;;;;;;;6.30;75.33;98128.84;106273;1270;22546;-59
2022/04/09 00:59:56;;;;;;;25.10;10.30;;;;;;;6.31;75.47;98128.55;106159;1270;24309;-59
2022/04/09 01:02:28;;;;;;;23.70;10.00;;;;;;;6.30;75.34;98130.41;106266;1270;27954;-59
2022/04/09 01:05:01;;;;;;;25.20;9.60;;;;;;;6.31;75.28;98137.40;106293;1270;25936;-58
2022/04/09 01:07:34;;;;;;;23.60;10.60;;;;;;;6.30;75.46;98136.40;106627;1270;22532;-58
2022/04/09 01:10:09;;;;;;;24.50;10.50;;;;;;;6.29;75.57;98134.95;106331;1270;25644;-58
2022/04/09 01:12:41;;;;;;;25.50;10.40;;;;;;;6.29;75.60;98132.83;106435;1270;25462;-59
2022/04/09 01:15:13;;;;;;;26.10;10.50;;;;;;;6.28;75.68;98139.32;106323;1270;25376;-58
2022/04/09 01:17:45;;;;;;;24.70;11.50;;;;;;;6.27;75.76;98147.52;106467;1270;25369;-58
2022/04/09 01:20:22;;;;;;;31.50;12.20;;;;;;;6.26;75.78;98155.33;106320;1270;22606;-59
2022/04/09 01:22:55;;;;;;;27.60;12.00;;;;;;;6.20;75.88;98163.87;106367;1270;22525;-59
2022/04/09 01:25:28;;;;;;;26.40;11.70;;;;;;;6.12;76.02;98165.61;106315;1271;24486;-59
2022/04/09 01:28:01;;;;;;;26.20;11.60;;;;;;;6.06;76.28;98172.04;106330;1270;22529;-58
2022/04/09 01:30:33;;;;;;;24.80;10.30;;;;;;;5.98;76.43;98176.44;106332;1270;22711;-57
2022/04/09 01:33:05;;;;;;;23.80;9.80;;;;;;;5.91;76.65;98179.59;106328;1271;24221;-61
2022/04/09 01:35:37;;;;;;;21.00;9.60;;;;;;;5.85;77.03;98185.94;106327;1270;22525;-59
2022/04/09 01:38:10;;;;;;;20.50;8.90;;;;;;;5.75;77.31;98194.18;106265;1270;22595;-60
2022/04/09 01:40:42;;;;;;;21.50;9.60;;;;;;;5.63;77.60;98194.06;106319;1270;25454;-60
2022/04/09 01:43:14;;;;;;;25.40;10.50;;;;;;;5.54;77.73;98194.61;106381;1270;26635;-60
2022/04/09 01:45:46;;;;;;;21.10;9.70;;;;;;;5.47;77.96;98194.36;106352;1270;22528;-59
2022/04/09 01:48:18;;;;;;;22.70;10.50;;;;;;;5.39;78.18;98191.60;106323;1270;22706;-60
2022/04/09 01:50:50;;;;;;;20.50;8.40;;;;;;;5.34;78.56;98203.34;106234;1270;25576;-59
2022/04/09 01:53:21;;;;;;;21.00;9.20;;;;;;;5.28;78.79;98214.07;106174;1270;22521;-58
2022/04/09 01:55:56;;;;;;;18.90;7.70;;;;;;;5.23;79.35;98217.24;106208;1270;24205;-59
2022/04/09 01:58:28;;;;;;;18.00;7.20;;;;;;;5.18;79.56;98219.73;106453;1270;25316;-61
2022/04/09 02:00:59;;;;;;;12.70;3.10;;;;;;;5.12;79.24;98226.00;106202;1270;24315;-59
2022/04/09 02:03:31;;;;;;;8.50;2.20;;;;;;;5.05;78.16;98233.59;106171;1270;22525;-60
2022/04/09 02:06:05;;;;;;;7.40;1.30;;;;;;;4.97;77.68;98240.86;106215;1271;27627;-60
2022/04/09 02:08:36;;;;;;;7.30;1.40;;;;;;;4.89;77.56;98252.91;106188;1270;22658;-60
2022/04/09 02:11:08;;;;;;;6.20;0.90;;;;;;;4.81;77.99;98256.20;106143;1270;25242;-59
2022/04/09 02:13:49;;;;;;;3.30;0.90;;;;;;;4.73;78.59;98256.71;106185;1270;23957;-59
2022/04/09 02:16:21;;;;;;;4.10;1.00;;;;;;;4.64;77.98;98260.05;106190;1270;23013;-60
2022/04/09 02:18:52;;;;;;;4.50;0.90;;;;;;;4.57;78.27;98265.38;106039;1270;22560;-61
2022/04/09 02:21:24;;;;;;;6.50;0.90;;;;;;;4.50;78.76;98270.90;106032;1270;25245;-61
2022/04/09 02:23:57;;;;;;;4.80;0.80;;;;;;;4.44;79.09;98285.55;106043;1270;22522;-62
2022/04/09 02:26:28;;;;;;;1.70;0.50;;;;;;;4.35;78.95;98290.27;105887;1271;22547;-61
2022/04/09 02:29:00;;;;;;;6.10;1.00;;;;;;;4.27;79.11;98289.50;106069;1270;23072;-60
2022/04/09 02:31:31;;;;;;;4.00;1.40;;;;;;;4.19;79.45;98285.84;106074;1270;22544;-60
2022/04/09 02:34:06;;;;;;;5.10;1.10;;;;;;;4.13;79.65;98282.65;105881;1270;22545;-62
2022/04/09 02:36:37;;;;;;;8.50;1.60;;;;;;;4.08;79.55;98286.00;106020;1270;24272;-60
2022/04/09 02:39:08;;;;;;;5.80;1.10;;;;;;;4.04;79.79;98291.86;106063;1270;22534;-60
2022/04/09 02:41:40;;;;;;;7.90;1.80;;;;;;;3.98;80.45;98297.77;106004;1270;22525;-61
2022/04/09 02:44:14;;;;;;;9.90;1.70;;;;;;;3.94;80.48;98295.95;105922;1269;22522;-61
2022/04/09 02:46:47;;;;;;;9.10;2.00;;;;;;;3.90;80.80;98294.13;105965;1270;22648;-61
2022/04/09 02:49:19;;;;;;;7.80;2.00;;;;;;;3.85;80.78;98286.84;106064;1271;22598;-61
2022/04/09 02:51:51;;;;;;;14.40;2.40;;;;;;;3.82;80.82;98294.46;106021;1270;25522;-62
2022/04/09 02:54:22;;;;;;;7.30;1.90;;;;;;;3.77;81.38;98307.90;105948;1270;22645;-60
2022/04/09 02:56:54;;;;;;;7.40;2.00;;;;;;;3.73;80.94;98307.64;105835;1270;23014;-61
2022/04/09 02:59:27;;;;;;;7.80;1.90;;;;;;;3.71;81.27;98303.91;105974;1270;25247;-62
2022/04/09 03:01:58;;;;;;;10.00;2.50;;;;;;;3.67;81.41;98298.12;105950;1270;22565;-62
2022/04/09 03:04:30;;;;;;;11.40;3.00;;;;;;;3.65;81.45;98296.33;106141;1270;22475;-62
2022/04/09 03:07:02;;;;;;;11.30;3.00;;;;;;;3.63;81.95;98306.18;106006;1271;22524;-61
2022/04/09 03:09:33;;;;;;;11.10;2.80;;;;;;;3.61;82.05;98318.28;105942;1270;22546;-63
2022/04/09 03:12:05;;;;;;;10.30;2.60;;;;;;;3.58;82.19;98317.64;105961;1271;25358;-62
2022/04/09 03:14:36;;;;;;;12.30;3.10;;;;;;;3.56;82.11;98311.20;105933;1271;22541;-63
2022/04/09 03:17:08;;;;;;;10.90;2.70;;;;;;;3.55;82.18;98303.46;105941;1270;25310;-63
2022/04/09 03:19:39;;;;;;;11.00;3.40;;;;;;;3.55;82.47;98323.17;105996;1270;22551;-62
2022/04/09 03:22:10;;;;;;;11.30;3.10;;;;;;;3.55;82.42;98339.58;105992;1270;22550;-62
2022/04/09 03:24:42;;;;;;;10.40;2.80;;;;;;;3.54;82.57;98335.34;105835;1270;24231;-62
2022/04/09 03:27:14;;;;;;;10.20;2.70;;;;;;;3.54;82.18;98340.15;106030;1270;22561;-63
2022/04/09 03:29:46;;;;;;;15.10;3.60;;;;;;;3.54;82.68;98336.80;105930;1270;22567;-62
2022/04/09 03:32:18;;;;;;;11.60;3.50;;;;;;;3.53;82.79;98344.10;105894;1270;24489;-61
2022/04/09 03:34:50;;;;;;;9.90;2.80;;;;;;;3.52;82.42;98352.71;105890;1270;22560;-62
2022/04/09 03:37:21;;;;;;;9.80;2.60;;;;;;;3.51;82.57;98353.56;105877;1270;22540;-62
2022/04/09 03:39:52;;;;;;;12.50;3.30;;;;;;;3.51;82.73;98356.96;105928;1269;22525;-60
2022/04/09 03:42:23;;;;;;;16.20;3.50;;;;;;;3.51;82.86;98358.26;106032;1271;25246;-61
2022/04/09 03:44:55;;;;;;;12.90;2.90;;;;;;;3.50;83.48;98363.71;106066;1271;22525;-60
2022/04/09 03:47:27;;;;;;;12.30;3.70;;;;;;;3.49;83.88;98365.21;105973;1270;24325;-62
2022/04/09 03:49:58;;;;;;;14.20;3.40;;;;;;;3.48;84.17;98371.00;105901;1270;22561;-64
2022/04/09 03:52:29;;;;;;;15.80;4.20;;;;;;;3.48;84.58;98374.46;106214;1270;22574;-62
2022/04/09 03:55:01;;;;;;;13.60;4.30;;;;;;;3.47;84.39;98377.11;106111;1270;22547;-62
2022/04/09 03:57:32;;;;;;;15.70;3.80;;;;;;;3.47;84.49;98385.58;105879;1270;24374;-61
2022/04/09 04:00:04;;;;;;;12.60;4.00;;;;;;;3.46;84.53;98382.80;106114;1270;22551;-60
2022/04/09 04:02:35;;;;;;;11.70;3.50;;;;;;;3.45;84.26;98388.70;106300;1270;24260;-60
2022/04/09 04:05:08;;;;;;;12.80;4.20;;;;;;;3.43;84.00;98394.05;106073;1270;22525;-61
2022/04/09 04:07:43;;;;;;;12.60;3.30;;;;;;;3.40;84.31;98399.40;106069;1270;24261;-60
2022/04/09 04:10:15;;;;;;;9.40;2.70;;;;;;;3.37;84.28;98407.06;105973;1270;25365;-61
2022/04/09 04:12:46;;;;;;;11.50;3.80;;;;;;;3.33;84.25;98416.52;106137;1270;22758;-61
2022/04/09 04:15:17;;;;;;;14.20;3.30;;;;;;;3.29;84.06;98417.86;105984;1270;22665;-60
2022/04/09 04:17:49;;;;;;;10.70;2.90;;;;;;;3.26;84.22;98418.90;106035;1270;25247;-61
2022/04/09 04:20:20;;;;;;;11.20;3.20;;;;;;;3.23;84.72;98427.73;105906;1270;24243;-61
2022/04/09 04:22:52;;;;;;;11.70;3.20;;;;;;;3.20;84.51;98430.54;106067;1270;25646;-60
2022/04/09 04:25:24;;;;;;;10.30;2.60;;;;;;;3.19;84.54;98427.40;105956;1270;22553;-61
2022/04/09 04:27:55;;;;;;;11.80;3.30;;;;;;;3.18;84.65;98433.28;106076;1270;22547;-61
2022/04/09 04:30:28;;;;;;;12.00;3.70;;;;;;;3.17;84.35;98437.73;105991;1271;24599;-62
2022/04/09 04:33:00;;;;;;;9.50;3.40;;;;;;;3.17;84.88;98441.20;106024;1270;22519;-62
2022/04/09 04:35:32;;;;;;;15.40;3.50;;;;;;;3.16;84.89;98438.87;106033;1270;25320;-62
2022/04/09 04:38:06;;;;;;;12.00;3.40;;;;;;;3.16;84.95;98442.10;106010;1270;25368;-61
2022/04/09 04:40:38;;;;;;;11.60;3.30;;;;;;;3.17;85.27;98441.29;106170;1270;22726;-62
2022/04/09 04:43:09;;;;;;;11.30;3.10;;;;;;;3.16;85.53;98441.58;105991;1270;22608;-62
2022/04/09 04:45:41;;;;;;;12.50;3.20;;;;;;;3.16;85.54;98434.11;106090;1270;25235;-62
2022/04/09 04:48:13;;;;;;;10.90;3.40;;;;;;;3.17;85.43;98439.09;106015;1271;25441;-62
2022/04/09 04:50:45;;;;;;;19.40;3.90;;;;;;;3.18;85.33;98438.97;106069;1270;25321;-61
2022/04/09 04:53:16;;;;;;;15.10;3.10;;;;;;;3.19;85.86;98438.48;106084;1270;25462;-62
2022/04/09 04:55:48;;;;;;;12.50;3.30;;;;;;;3.20;85.51;98442.01;105984;1270;22528;-60
2022/04/09 04:58:21;;;;;;;13.90;3.30;;;;;;;3.21;85.66;98446.73;106006;1270;26503;-61
2022/04/09 05:00:53;;;;;;;14.30;4.30;;;;;;;3.22;86.12;98447.96;105941;1270;22528;-59
2022/04/09 05:03:24;;;;;;;17.20;4.40;;;;;;;3.23;86.31;98447.13;106042;1270;24434;-60
2022/04/09 05:05:56;;;;;;;17.60;4.20;;;;;;;3.23;85.99;98444.02;106121;1271;22569;-59
2022/04/09 05:08:28;;;;;;;12.10;3.50;;;;;;;3.25;85.96;98451.03;105729;1270;22984;-59
2022/04/09 05:10:59;;;;;;;14.00;4.10;;;;;;;3.27;86.32;98453.83;105895;1270;22544;-59
2022/04/09 05:13:33;;;;;;;13.90;4.80;;;;;;;3.28;86.02;98454.23;105963;1270;22549;-59
2022/04/09 05:16:06;;;;;;;16.60;4.60;;;;;;;3.30;86.29;98466.77;106024;1271;24231;-58
2022/04/09 05:18:39;;;;;;;15.40;4.40;;;;;;;3.33;85.84;98469.48;105805;1270;22615;-59
2022/04/09 05:21:10;;;;;;;15.10;4.40;;;;;;;3.37;85.83;98478.33;105901;1270;23948;-58
2022/04/09 05:23:42;;;;;;;19.00;5.00;;;;;;;3.41;85.73;98484.94;105916;1270;24328;-58
2022/04/09 05:26:14;;;;;;;17.20;4.60;;;;;;;3.45;85.88;98484.80;105770;1270;25412;-58
2022/04/09 05:28:52;;;;;;;16.30;4.60;;;;;;;3.49;85.71;98484.72;105841;1270;22541;-56
2022/04/09 05:31:27;;;;;;;15.20;5.10;;;;;;;3.53;85.81;98494.52;105904;1270;24416;-59
2022/04/09 05:33:59;;;;;;;14.70;4.40;;;;;;;3.56;85.65;98505.46;105930;1270;22528;-59
2022/04/09 05:36:31;;;;;;;16.80;5.00;;;;;;;3.59;85.57;98508.20;105987;1270;23004;-58
2022/04/09 05:39:03;;;;;;;17.20;5.10;;;;;;;3.62;85.45;98510.56;105878;1270;22529;-58
2022/04/09 05:41:35;;;;;;;16.20;4.10;;;;;;;3.67;85.42;98523.73;109793;1269;23571;-59
2022/04/09 05:44:08;;;;;;;18.20;4.50;;;;;;;3.70;85.35;98530.94;107074;1270;22619;-58
2022/04/09 05:46:40;;;;;;;13.00;3.00;;;;;;;3.73;85.26;98532.30;105946;1270;25250;-59
2022/04/09 05:49:12;;;;;;;15.60;3.90;;;;;;;3.76;85.19;98537.96;105983;1270;25333;-57
2022/04/09 05:51:43;;;;;;;15.10;3.60;;;;;;;3.79;85.11;98543.80;105835;1270;22536;-58
2022/04/09 05:54:15;;;;;;;12.60;3.00;;;;;;;3.82;84.91;98552.39;105954;1270;23209;-56
2022/04/09 05:56:47;;;;;;;12.00;3.70;;;;;;;3.85;84.89;98558.80;105931;1271;25404;-58
2022/04/09 05:59:19;;;;;;;10.70;3.30;;;;;;;3.88;84.92;98567.70;105892;1270;22630;-58
2022/04/09 06:01:51;;;;;;;15.80;3.10;;;;;;;3.91;85.01;98569.70;105838;1270;24441;-58
2022/04/09 06:04:22;;;;;;;11.20;3.00;;;;;;;3.95;84.93;98573.59;105871;1270;25606;-58
2022/04/09 06:06:55;;;;;;;14.20;4.20;;;;;;;3.98;84.85;98581.59;105762;1270;22554;-58
2022/04/09 06:09:27;;;;;;;12.90;3.60;;;;;;;4.03;85.01;98597.28;105897;1270;25442;-56
2022/04/09 06:11:59;;;;;;;10.90;3.30;;;;;;;4.07;84.93;98605.50;105916;1271;24243;-59
2022/04/09 06:14:31;;;;;;;11.80;3.60;;;;;;;4.11;84.82;98607.61;107030;1270;22534;-59
2022/04/09 06:17:03;;;;;;;13.00;3.20;;;;;;;4.15;84.79;98610.65;106130;1270;25306;-58
2022/04/09 06:19:36;;;;;;;12.40;3.40;;;;;;;4.18;84.75;98616.23;106024;1270;22541;-58
2022/04/09 06:22:08;;;;;;;16.40;4.30;;;;;;;4.20;84.69;98620.48;105975;1270;22547;-58
2022/04/09 06:24:41;;;;;;;14.30;4.10;;;;;;;4.22;84.48;98620.92;105911;1270;24424;-58
2022/04/09 06:27:15;;;;;;;14.50;4.30;;;;;;;4.24;84.47;98622.92;105856;1270;22550;-56
2022/04/09 06:29:48;;;;;;;15.40;3.00;;;;;;;4.27;84.47;98633.27;106044;1270;25353;-56
2022/04/09 06:32:20;;;;;;;16.90;5.20;;;;;;;4.28;84.33;98637.36;105990;1270;24362;-58
2022/04/09 06:34:52;;;;;;;11.40;4.30;;;;;;;4.31;84.34;98645.70;106037;1270;25324;-61
2022/04/09 06:37:25;;;;;;;12.80;3.80;;;;;;;4.32;84.16;98655.41;105839;1270;23167;-58
2022/04/09 06:39:57;;;;;;;14.00;3.90;;;;;;;4.34;84.19;98662.16;105956;1271;22527;-57
2022/04/09 06:42:28;;;;;;;13.50;3.40;;;;;;;4.36;84.27;98672.10;105937;1270;22530;-60
2022/04/09 06:45:02;;;;;;;14.40;3.50;;;;;;;4.39;84.31;98675.41;106004;1271;22540;-56
2022/04/09 06:47:36;;;;;;;10.70;2.50;;;;;;;4.42;84.30;98682.66;106057;1271;25255;-60
2022/04/09 06:50:11;;;;;;;9.40;2.80;;;;;;;4.45;84.01;98692.12;105954;1270;22546;-56
2022/04/09 06:52:43;;;;;;;11.10;3.10;;;;;;;4.47;83.68;98695.91;105947;1271;25361;-55
2022/04/09 06:55:15;;;;;;;12.20;2.20;;;;;;;4.49;83.72;98707.23;105893;1270;22916;-56
2022/04/09 06:57:46;;;;;;;10.20;2.50;;;;;;;4.51;83.61;98720.63;106057;1270;22616;-58
2022/04/09 07:00:19;;;;;;;8.50;2.50;;;;;;;4.54;83.52;98728.35;105969;1271;24951;-57
2022/04/09 07:02:52;;;;;;;9.30;2.20;;;;;;;4.58;83.83;98735.27;105882;1270;25411;-58
2022/04/09 07:05:25;;;;;;;10.20;2.50;;;;;;;4.63;83.64;98739.38;105934;1270;24233;-56
2022/04/09 07:07:56;;;;;;;11.50;2.20;;;;;;;4.67;83.18;98744.83;106017;1270;22525;-58
2022/04/09 07:10:29;;;;;;;12.60;2.60;;;;;;;4.70;83.18;98756.74;106096;1270;22534;-58
2022/04/09 07:13:00;;;;;;;12.40;2.50;;;;;;;4.73;83.24;98758.41;105956;1270;24262;-56
2022/04/09 07:15:31;;;;;;;11.90;2.80;;;;;;;4.77;83.16;98761.90;106162;1271;24268;-58
2022/04/09 07:18:03;;;;;;;11.70;2.30;;;;;;;4.81;82.89;98769.98;105928;1271;22652;-58
2022/04/09 07:20:36;;;;;;;8.80;2.00;;;;;;;4.83;82.35;98783.98;106269;1270;22617;-57
2022/04/09 07:23:08;;;;;;;11.00;2.10;;;;;;;4.84;82.29;98793.61;105962;1270;24298;-57
2022/04/09 07:25:42;;;;;;;9.40;2.30;;;;;;;4.85;82.18;98799.77;106112;1270;22554;-55
2022/04/09 07:28:13;;;;;;;11.10;2.90;;;;;;;4.88;82.22;98803.88;105890;1270;24398;-59
2022/04/09 07:30:45;;;;;;;13.10;2.10;;;;;;;4.93;82.41;98811.91;106015;1271;24437;-57
2022/04/09 07:33:16;;;;;;;8.30;2.10;;;;;;;4.99;82.35;98818.90;106386;1259;22599;-54
2022/04/09 07:35:49;;;;;;;8.50;2.40;;;;;;;5.04;81.82;98826.23;106170;1270;22626;-55
2022/04/09 07:38:21;;;;;;;14.00;2.20;;;;;;;5.06;81.74;98830.77;108392;1269;25182;-55
2022/04/09 07:40:54;;;;;;;11.00;2.70;;;;;;;5.07;81.65;98835.20;106077;1270;25233;-53
2022/04/09 07:43:25;;;;;;;10.30;2.80;;;;;;;5.11;82.00;98835.46;106761;1268;23096;-52
2022/04/09 07:45:57;;;;;;;13.10;2.60;;;;;;;5.16;82.10;98840.89;106189;1270;22550;-55
2022/04/09 07:48:29;;;;;;;11.50;2.30;;;;;;;5.21;81.89;98843.80;106122;1270;22714;-53
2022/04/09 07:51:00;;;;;;;9.40;2.50;;;;;;;5.24;81.91;98850.04;106267;1270;24259;-51
2022/04/09 07:53:32;;;;;;;14.30;2.70;;;;;;;5.27;81.41;98854.52;106035;1270;22600;-56
2022/04/09 07:56:04;;;;;;;9.20;2.30;;;;;;;5.32;80.61;98851.09;106276;1270;24221;-55
2022/04/09 07:58:36;;;;;;;12.20;2.40;;;;;;;5.40;81.00;98848.85;106227;1270;25238;-55
2022/04/09 08:01:07;;;;;;;13.50;2.40;;;;;;;5.50;80.79;98852.90;106414;1270;25874;-55
2022/04/09 08:03:39;;;;;;;11.90;1.90;;;;;;;5.58;80.66;98854.80;106198;1269;22541;-53
2022/04/09 08:06:10;;;;;;;10.00;2.10;;;;;;;5.65;80.23;98866.20;106355;1270;22983;-53
2022/04/09 08:08:43;;;;;;;12.00;1.70;;;;;;;5.71;78.86;98877.02;106336;1270;22623;-53
2022/04/09 08:11:15;;;;;;;7.30;1.30;;;;;;;5.76;77.85;98883.23;106347;1270;22715;-54
2022/04/09 08:13:46;;;;;;;5.60;0.90;;;;;;;5.82;76.94;98892.64;106375;1270;22696;-55
2022/04/09 08:16:18;;;;;;;11.00;1.60;;;;;;;5.80;76.46;98895.23;106225;1270;24323;-52
2022/04/09 08:18:52;;;;;;;7.50;1.10;;;;;;;5.79;77.19;98904.17;106467;1270;22545;-51
2022/04/09 08:21:24;;;;;;;7.90;0.90;;;;;;;5.76;76.22;98909.52;106124;1270;25233;-54
2022/04/09 08:23:55;;;;;;;8.00;1.30;;;;;;;5.73;76.28;98907.86;106204;1270;24274;-54
2022/04/09 08:26:27;;;;;;;5.80;0.90;;;;;;;5.70;76.18;98906.81;106744;1270;24025;-55
2022/04/09 08:28:58;;;;;;;6.60;1.10;;;;;;;5.75;76.19;98907.52;107204;1270;22536;-57
2022/04/09 08:31:30;;;;;;;8.30;0.90;;;;;;;5.89;75.81;98907.34;106624;1271;22544;-54
2022/04/09 08:34:02;;;;;;;7.80;1.50;;;;;;;5.94;75.71;98905.41;106185;1270;22526;-54
2022/04/09 08:36:34;;;;;;;6.10;0.80;;;;;;;6.02;76.43;98907.09;106091;1270;22551;-53
2022/04/09 08:39:06;;;;;;;8.40;1.30;;;;;;;6.17;76.04;98921.27;106375;1270;24727;-52
2022/04/09 08:41:44;;;;;;;4.90;1.00;;;;;;;6.28;75.08;98910.41;106308;1270;23921;-52
2022/04/09 08:44:17;;;;;;;6.60;1.00;;;;;;;6.42;75.35;98911.52;105858;1270;25268;-52
2022/04/09 08:46:50;;;;;;;6.80;1.00;;;;;;;6.52;75.37;98917.61;105872;1270;25354;-54
2022/04/09 08:49:22;;;;;;;6.80;1.00;;;;;;;6.52;73.74;98928.80;106015;1270;22606;-53
2022/04/09 08:51:54;;;;;;;5.70;0.90;;;;;;;6.42;75.37;98943.71;106418;1270;22550;-51
2022/04/09 08:54:27;;;;;;;6.10;0.80;;;;;;;6.28;75.33;98963.07;105947;1270;25294;-51
2022/04/09 08:57:01;;;;;;;6.40;1.10;;;;;;;6.14;76.16;98966.37;106023;1270;26042;-54
2022/04/09 08:59:33;;;;;;;10.80;1.40;;;;;;;6.03;76.26;98974.15;106116;1270;24251;-52
2022/04/09 09:02:05;;;;;;;11.20;1.20;;;;;;;5.94;76.38;98978.54;106110;1270;22525;-52
2022/04/09 09:04:37;;;;;;;8.70;1.40;;;;;;;5.90;76.78;98976.90;105975;1270;25459;-53
2022/04/09 09:07:24;;;;;;;11.40;1.40;;;;;;;5.98;76.60;98975.63;105882;1270;22553;-54
2022/04/09 09:10:13;;;;;;;9.70;1.90;;;;;;;6.10;76.21;98978.30;106118;1270;22599;-54
2022/04/09 09:12:57;;;;;;;4.60;1.20;;;;;;;6.22;74.42;98986.26;106457;1270;22498;-54
2022/04/09 09:15:29;;;;;;;7.20;1.10;;;;;;;6.32;73.89;98990.85;106217;1270;25345;-53
2022/04/09 09:18:01;;;;;;;10.50;1.20;;;;;;;6.35;72.12;98995.88;106186;1270;25194;-52
2022/04/09 09:20:40;;;;;;;4.70;0.90;;;;;;;6.32;70.52;99006.73;106317;1270;23052;-51
2022/04/09 09:23:22;;;;;;;3.70;0.80;;;;;;;6.31;70.53;99018.95;106135;1270;22954;-55
2022/04/09 09:25:55;;;;;;;2.60;0.70;;;;;;;6.35;68.62;99026.31;106035;1270;25355;-56
2022/04/09 09:28:28;;;;;;;2.20;0.60;;;;;;;6.38;68.93;99032.13;105856;1270;24287;-52
2022/04/09 09:31:01;;;;;;;3.20;0.80;;;;;;;6.44;69.21;99026.32;105978;1270;25356;-53
2022/04/09 09:33:35;;;;;;;6.50;1.30;;;;;;;6.47;68.19;99031.27;106069;1270;615551;-55
2022/04/09 09:36:08;;;;;;;5.10;1.20;;;;;;;6.50;67.79;99036.48;105948;1270;24272;-52
2022/04/09 09:38:40;;;;;;;5.60;1.00;;;;;;;6.56;69.17;99038.35;105706;1270;25949;-52
2022/04/09 09:41:25;;;;;;;3.70;0.90;;;;;;;6.63;68.88;99043.90;105802;1270;23088;-50
2022/04/09 09:44:10;;;;;;;5.30;1.30;;;;;;;6.70;67.32;99044.80;105968;1270;25241;-53
2022/04/09 09:46:43;;;;;;;6.60;1.00;;;;;;;6.75;66.96;99050.38;105889;1270;22754;-52
2022/04/09 09:49:15;;;;;;;3.40;0.80;;;;;;;6.78;65.92;99053.25;105857;1270;25287;-55
2022/04/09 09:52:02;;;;;;;7.50;1.00;;;;;;;6.79;65.72;99055.29;105790;1270;25155;-53
2022/04/09 09:54:35;;;;;;;5.90;1.10;;;;;;;6.81;65.56;99058.98;106251;1270;22653;-55
2022/04/09 09:57:21;;;;;;;3.50;0.60;;;;;;;6.84;65.69;99058.65;106354;1270;23063;-50
2022/04/09 09:59:55;;;;;;;5.60;1.20;;;;;;;6.92;64.70;99062.30;106574;1270;24374;-51
2022/04/09 10:02:27;;;;;;;7.60;1.00;;;;;;;7.00;63.99;99069.81;106975;1270;22894;-50
2022/04/09 10:04:59;;;;;;;5.00;1.30;;;;;;;7.05;64.44;99063.48;106497;1270;97560;-52
2022/04/09 10:07:32;;;;;;;6.80;0.70;;;;;;;7.12;62.70;99081.77;107437;1270;22544;-51
2022/04/09 10:10:06;;;;;;;5.20;0.80;;;;;;;7.19;62.39;99089.22;105934;1270;25329;-52
2022/04/09 10:12:42;;;;;;;5.10;0.90;;;;;;;7.26;62.47;99085.83;106374;1270;24268;-53
2022/04/09 10:15:14;;;;;;;4.00;0.80;;;;;;;7.29;62.76;99088.23;107046;1269;23448;-55
2022/04/09 10:17:48;;;;;;;3.60;0.80;;;;;;;7.31;63.16;99106.14;106308;1270;24200;-54
2022/04/09 10:20:22;;;;;;;3.70;0.60;;;;;;;7.32;61.65;99113.36;106158;1270;24175;-52
2022/04/09 10:22:58;;;;;;;8.20;0.70;;;;;;;7.33;60.38;99105.55;106781;1270;22545;-54
2022/04/09 10:25:32;;;;;;;3.50;0.70;;;;;;;7.40;61.02;99118.67;109512;1270;22529;-50
2022/04/09 10:28:06;;;;;;;2.80;0.60;;;;;;;7.44;60.98;99123.02;106234;1269;25413;-51
2022/04/09 10:30:43;;;;;;;4.30;0.90;;;;;;;7.47;61.42;99120.14;109829;1270;22503;-52
2022/04/09 10:33:28;;;;;;;5.80;0.90;;;;;;;7.52;61.33;99135.30;106418;1270;26585;-52
2022/04/09 10:36:02;;;;;;;4.80;1.20;;;;;;;7.57;61.31;99138.95;106044;1270;24520;-51
2022/04/09 10:38:38;;;;;;;9.20;1.20;;;;;;;7.59;60.87;99142.77;107161;1270;22688;-54
2022/04/09 10:41:30;;;;;;;9.10;1.00;;;;;;;7.63;60.93;99143.16;106970;1270;27711;-52
2022/04/09 10:44:06;;;;;;;8.30;1.50;;;;;;;7.72;61.00;99138.84;109045;1270;24471;-50
2022/04/09 10:46:41;;;;;;;7.20;0.80;;;;;;;7.82;59.97;99140.48;106059;1270;25210;-51
2022/04/09 10:49:22;;;;;;;5.40;1.10;;;;;;;7.85;59.08;99147.55;107226;1270;24144;-51
2022/04/09 10:52:19;;;;;;;6.10;1.00;;;;;;;7.84;59.11;99155.91;105932;1270;23044;-51
2022/04/09 10:55:30;;;;;;;4.20;0.70;;;;;;;7.83;59.80;99158.11;109785;1270;22443;-55
2022/04/09 10:58:09;;;;;;;5.90;0.70;;;;;;;7.86;59.77;99153.91;106461;1270;22597;-56
2022/04/09 11:00:43;;;;;;;6.40;0.70;;;;;;;7.94;59.17;99149.08;107581;1270;24083;-53
2022/04/09 11:03:35;;;;;;;4.10;0.60;;;;;;;8.04;58.30;99150.30;105926;1270;25245;-54
2022/04/09 11:06:43;;;;;;;8.80;0.90;;;;;;;8.11;57.34;99159.02;106108;1270;24137;-51
2022/04/09 11:09:17;;;;;;;5.70;0.70;;;;;;;8.06;56.94;99165.33;106840;1270;22866;-53
2022/04/09 11:12:02;;;;;;;6.90;0.50;;;;;;;7.98;55.28;99169.12;105950;1270;22561;-49
2022/04/09 11:14:48;;;;;;;2.90;0.50;;;;;;;7.88;56.50;99162.02;106595;1270;24272;-51
2022/04/09 11:17:37;;;;;;;3.30;0.60;;;;;;;7.91;57.88;99162.71;105723;1270;25231;-53
2022/04/09 11:20:11;;;;;;;8.30;0.80;;;;;;;8.01;58.03;99148.49;105742;1271;26672;-55
2022/04/09 11:22:44;;;;;;;4.30;0.50;;;;;;;8.08;56.87;99159.69;105721;1270;25358;-53
2022/04/09 11:25:24;;;;;;;4.80;0.40;;;;;;;8.07;56.50;99159.63;105791;1270;22574;-55
2022/04/09 11:28:10;;;;;;;6.20;0.50;;;;;;;8.13;55.60;99155.70;105914;1271;23151;-55
2022/04/09 11:30:57;;;;;;;2.70;0.40;;;;;;;8.26;56.74;99153.45;105804;1270;24215;-52
2022/04/09 11:33:30;;;;;;;1.40;0.30;;;;;;;8.37;56.40;99150.67;105946;1270;25436;-53
2022/04/09 11:36:02;;;;;;;3.30;0.90;;;;;;;8.51;56.79;99153.86;107362;1270;22532;-54
2022/04/09 11:38:34;;;;;;;2.30;0.40;;;;;;;8.60;55.83;99163.29;105923;1270;27122;-50
2022/04/09 11:41:20;;;;;;;5.60;0.50;;;;;;;8.59;55.06;99170.20;106043;1270;25191;-53
2022/04/09 11:43:52;;;;;;;6.30;0.80;;;;;;;8.50;54.86;99178.23;106803;1270;22764;-55
2022/04/09 11:46:31;;;;;;;5.10;0.70;;;;;;;8.50;55.83;99177.06;105977;1271;24235;-51
2022/04/09 11:49:03;;;;;;;4.90;0.50;;;;;;;8.49;55.14;99179.73;105747;1270;22588;-52
2022/04/09 11:51:35;;;;;;;3.90;0.70;;;;;;;8.42;54.49;99176.97;106022;1270;25329;-52
2022/04/09 11:54:20;;;;;;;3.70;0.50;;;;;;;8.32;54.21;99173.48;105955;1270;24217;-52
2022/04/09 11:56:51;;;;;;;2.70;0.40;;;;;;;8.11;54.55;99174.44;105949;1271;23196;-49